createdAt,value
2022-12-04T00:01:28.131Z,4.19
2022-12-04T00:03:58.987Z,4.36
2022-12-04T00:06:28.844Z,4.53
2022-12-04T00:08:57.494Z,4.68
2022-12-04T00:11:28.830Z,4.83
2022-12-04T00:14:04.598Z,4.95
2022-12-04T00:16:35.809Z,5.06
2022-12-04T00:19:05.334Z,5.05
2022-12-04T00:21:33.677Z,4.65
2022-12-04T00:24:02.588Z,4.13
2022-12-04T00:26:31.370Z,3.73
2022-12-04T00:29:00.308Z,3.41
2022-12-04T00:31:30.975Z,3.17
2022-12-04T00:34:00.543Z,2.96
2022-12-04T00:36:29.798Z,2.77
2022-12-04T00:39:01.167Z,2.70
2022-12-04T00:41:31.605Z,3.10
2022-12-04T00:44:01.569Z,3.50
2022-12-04T00:46:30.564Z,3.82
2022-12-04T00:49:02.209Z,4.08
2022-12-04T00:51:30.989Z,4.27
2022-12-04T00:53:59.713Z,4.38
2022-12-04T00:56:29.665Z,4.52
2022-12-04T00:58:59.962Z,4.75
2022-12-04T01:01:29.686Z,4.90
2022-12-04T01:03:58.057Z,5.00
2022-12-04T01:06:32.757Z,5.10
2022-12-04T01:09:02.897Z,5.15
2022-12-04T01:11:32.050Z,5.17
2022-12-04T01:14:01.222Z,5.11
2022-12-04T01:16:33.783Z,4.64
2022-12-04T01:19:02.940Z,4.11
2022-12-04T01:21:31.586Z,3.69
2022-12-04T01:24:00.085Z,3.37
2022-12-04T01:26:28.769Z,3.13
2022-12-04T01:28:57.678Z,2.99
2022-12-04T01:31:26.058Z,3.28
2022-12-04T01:33:54.496Z,3.66
2022-12-04T01:36:28.240Z,3.96
2022-12-04T01:38:56.701Z,4.16
2022-12-04T01:41:28.010Z,4.32
2022-12-04T01:44:20.384Z,4.48
2022-12-04T01:46:55.971Z,4.66
2022-12-04T01:49:31.579Z,4.77
2022-12-04T01:52:15.959Z,4.94
2022-12-04T01:54:48.294Z,5.05
2022-12-04T01:57:20.643Z,5.10
2022-12-04T01:59:56.976Z,5.15
2022-12-04T02:02:33.632Z,5.22
2022-12-04T02:05:04.657Z,5.29
2022-12-04T02:07:33.522Z,5.36
2022-12-04T02:10:06.529Z,5.35
2022-12-04T02:12:53.501Z,4.90
2022-12-04T02:15:53.414Z,4.34
2022-12-04T02:18:31.236Z,3.86
2022-12-04T02:21:08.555Z,3.55
2022-12-04T02:23:55.178Z,3.30
2022-12-04T02:26:56.505Z,3.05
2022-12-04T02:29:36.662Z,3.02
2022-12-04T02:32:23.002Z,3.48
2022-12-04T02:35:06.660Z,3.89
2022-12-04T02:37:39.441Z,4.19
2022-12-04T02:40:23.276Z,4.42
2022-12-04T02:43:24.893Z,4.63
2022-12-04T02:46:17.160Z,4.81
2022-12-04T02:48:49.605Z,4.94
2022-12-04T02:51:19.626Z,5.05
2022-12-04T02:53:53.671Z,5.13
2022-12-04T02:56:32.543Z,5.27
2022-12-04T02:59:18.126Z,5.38
2022-12-04T03:01:51.764Z,5.47
2022-12-04T03:04:24.700Z,5.52
2022-12-04T03:06:58.393Z,5.55
2022-12-04T03:09:35.642Z,5.58
2022-12-04T03:12:13.063Z,5.62
2022-12-04T03:15:07.813Z,5.64
2022-12-04T03:17:50.589Z,5.66
2022-12-04T03:20:20.008Z,5.69
2022-12-04T03:22:54.989Z,5.65
2022-12-04T03:25:29.140Z,5.68
2022-12-04T03:28:05.273Z,5.68
2022-12-04T03:30:41.982Z,5.67
2022-12-04T03:33:16.327Z,5.67
2022-12-04T03:35:53.005Z,5.74
2022-12-04T03:38:24.112Z,5.81
2022-12-04T03:41:11.541Z,5.79
2022-12-04T03:43:53.295Z,5.31
2022-12-04T03:46:29.939Z,4.80
2022-12-04T03:49:20.467Z,4.40
2022-12-04T03:52:15.728Z,4.08
2022-12-04T03:54:53.375Z,3.79
2022-12-04T03:57:28.288Z,3.69
2022-12-04T04:00:08.428Z,4.04
2022-12-04T04:02:45.271Z,4.43
2022-12-04T04:05:15.547Z,4.69
2022-12-04T04:07:52.522Z,4.91
2022-12-04T04:10:25.127Z,5.13
2022-12-04T04:13:17.724Z,5.32
2022-12-04T04:16:24.963Z,5.45
2022-12-04T04:19:14.293Z,5.59
2022-12-04T04:22:02.495Z,5.68
2022-12-04T04:24:40.283Z,5.78
2022-12-04T04:27:08.895Z,5.85
2022-12-04T04:29:38.094Z,5.91
2022-12-04T04:32:12.329Z,5.97
2022-12-04T04:35:00.585Z,6.01
2022-12-04T04:37:38.058Z,6.04
2022-12-04T04:40:22.076Z,6.07
2022-12-04T04:43:10.251Z,6.10
2022-12-04T04:45:48.829Z,6.15
2022-12-04T04:48:33.657Z,6.18
2022-12-04T04:51:04.420Z,6.17
2022-12-04T04:53:39.744Z,6.18
2022-12-04T04:56:08.756Z,6.19
2022-12-04T04:58:36.946Z,6.16
2022-12-04T05:01:15.158Z,6.17
2022-12-04T05:03:43.499Z,6.20
2022-12-04T05:06:11.956Z,6.25
2022-12-04T05:08:40.527Z,6.29
2022-12-04T05:11:13.282Z,6.34
2022-12-04T05:13:42.580Z,6.36
2022-12-04T05:16:13.217Z,6.39
2022-12-04T05:19:03.284Z,6.43
2022-12-04T05:21:31.840Z,6.48
2022-12-04T05:24:00.087Z,6.54
2022-12-04T05:26:28.779Z,6.60
2022-12-04T05:28:57.085Z,6.69
2022-12-04T05:31:25.578Z,6.76
2022-12-04T05:33:54.080Z,6.78
2022-12-04T05:36:22.480Z,6.82
2022-12-04T05:38:50.903Z,6.89
2022-12-04T05:41:19.274Z,6.95
2022-12-04T05:43:47.699Z,7.02
2022-12-04T05:46:17.057Z,7.07
2022-12-04T05:48:45.443Z,7.13
2022-12-04T05:51:13.761Z,7.04
2022-12-04T05:53:42.011Z,6.50
2022-12-04T05:56:10.885Z,5.92
2022-12-04T05:58:39.299Z,5.45
2022-12-04T06:01:13.399Z,5.09
2022-12-04T06:03:41.879Z,4.91
2022-12-04T06:06:22.146Z,5.25
2022-12-04T06:08:52.788Z,5.66
2022-12-04T06:11:24.288Z,5.91
2022-12-04T06:13:53.451Z,6.10
2022-12-04T06:16:24.988Z,6.23
2022-12-04T06:18:58.854Z,6.34
2022-12-04T06:21:30.695Z,6.47
2022-12-04T06:23:59.402Z,6.62
2022-12-04T06:26:27.841Z,6.74
2022-12-04T06:28:57.805Z,6.86
2022-12-04T06:31:28.563Z,6.91
2022-12-04T06:33:58.779Z,6.94
2022-12-04T06:36:27.226Z,7.01
2022-12-04T06:38:56.804Z,7.12
2022-12-04T06:41:27.011Z,7.22
2022-12-04T06:43:56.043Z,7.30
2022-12-04T06:46:30.629Z,7.32
2022-12-04T06:49:01.773Z,7.29
2022-12-04T06:51:33.235Z,7.26
2022-12-04T06:54:02.545Z,7.26
2022-12-04T06:56:33.033Z,7.25
2022-12-04T06:59:03.767Z,7.23
2022-12-04T07:01:34.134Z,7.17
2022-12-04T07:04:04.562Z,7.12
2022-12-04T07:06:35.803Z,7.05
2022-12-04T07:09:10.512Z,6.97
2022-12-04T07:11:40.271Z,6.92
2022-12-04T07:14:09.123Z,6.93
2022-12-04T07:16:41.179Z,6.97
2022-12-04T07:19:11.586Z,6.97
2022-12-04T07:21:40.706Z,6.96
2022-12-04T07:24:14.985Z,6.98
2022-12-04T07:26:43.619Z,6.98
2022-12-04T07:29:12.068Z,7.00
2022-12-04T07:31:40.495Z,6.99
2022-12-04T07:34:09.085Z,6.99
2022-12-04T07:36:39.748Z,7.00
2022-12-04T07:39:07.920Z,7.01
2022-12-04T07:41:36.486Z,7.03
2022-12-04T07:44:07.575Z,7.07
2022-12-04T07:46:35.894Z,7.10
2022-12-04T07:49:04.499Z,7.11
2022-12-04T07:51:32.938Z,7.09
2022-12-04T07:54:04.044Z,7.01
2022-12-04T07:56:33.802Z,6.97
2022-12-04T07:59:02.840Z,6.94
2022-12-04T08:01:31.700Z,6.86
2022-12-04T08:04:01.377Z,6.77
2022-12-04T08:06:32.556Z,6.68
2022-12-04T08:09:06.118Z,6.65
2022-12-04T08:11:38.106Z,6.61
2022-12-04T08:14:09.014Z,6.63
2022-12-04T08:16:37.933Z,6.65
2022-12-04T08:19:06.670Z,6.68
2022-12-04T08:21:34.913Z,6.66
2022-12-04T08:24:03.523Z,6.65
2022-12-04T08:26:34.017Z,6.68
2022-12-04T08:29:03.267Z,6.70
2022-12-04T08:31:34.109Z,6.76
2022-12-04T08:34:04.786Z,6.80
2022-12-04T08:36:33.881Z,6.84
2022-12-04T08:39:02.139Z,6.88
2022-12-04T08:41:30.668Z,6.92
2022-12-04T08:43:59.584Z,6.96
2022-12-04T08:46:29.082Z,6.98
2022-12-04T08:48:59.112Z,6.99
2022-12-04T08:51:44.717Z,6.95
2022-12-04T08:54:14.947Z,6.93
2022-12-04T08:56:45.462Z,6.96
2022-12-04T08:59:15.177Z,6.97
2022-12-04T09:01:45.245Z,7.00
2022-12-04T09:04:15.109Z,7.06
2022-12-04T09:06:44.514Z,7.08
2022-12-04T09:09:14.148Z,7.11
2022-12-04T09:11:50.312Z,7.17
2022-12-04T09:14:26.572Z,7.18
2022-12-04T09:16:56.776Z,7.13
2022-12-04T09:19:29.115Z,7.11
2022-12-04T09:22:04.760Z,7.12
2022-12-04T09:24:35.003Z,7.08
2022-12-04T09:27:14.496Z,7.06
2022-12-04T09:29:45.481Z,7.04
2022-12-04T09:32:18.614Z,7.00
2022-12-04T09:34:52.694Z,6.93
2022-12-04T09:37:23.104Z,6.87
2022-12-04T09:39:54.639Z,6.87
2022-12-04T09:42:34.524Z,6.90
2022-12-04T09:45:17.243Z,6.96
2022-12-04T09:47:50.645Z,7.01
2022-12-04T09:50:32.559Z,7.06
2022-12-04T09:53:11.542Z,7.09
2022-12-04T09:55:46.897Z,7.05
2022-12-04T09:58:24.509Z,7.04
2022-12-04T10:01:01.252Z,7.09
2022-12-04T10:03:33.237Z,7.07
2022-12-04T10:06:15.752Z,7.03
2022-12-04T10:08:46.361Z,7.03
2022-12-04T10:11:32.792Z,7.00
2022-12-04T10:14:17.088Z,7.04
2022-12-04T10:17:08.465Z,7.09
2022-12-04T10:20:18.838Z,7.12
2022-12-04T10:23:13.388Z,7.12
2022-12-04T10:25:44.155Z,7.18
2022-12-04T10:28:15.938Z,7.19
2022-12-04T10:30:45.975Z,7.20
2022-12-04T10:33:24.280Z,7.25
2022-12-04T10:35:54.721Z,7.27
2022-12-04T10:38:42.724Z,7.27
2022-12-04T10:41:20.914Z,7.28
2022-12-04T10:43:50.555Z,7.33
2022-12-04T10:46:31.842Z,7.35
2022-12-04T10:49:03.228Z,7.37
2022-12-04T10:51:38.667Z,7.41
2022-12-04T10:54:31.645Z,7.44
2022-12-04T10:57:18.328Z,7.45
2022-12-04T10:59:52.873Z,7.46
2022-12-04T11:02:25.826Z,7.48
2022-12-04T11:05:00.633Z,7.51
2022-12-04T11:07:38.112Z,7.53
2022-12-04T11:10:41.265Z,7.48
2022-12-04T11:13:13.160Z,7.43
2022-12-04T11:15:54.346Z,7.44
2022-12-04T11:18:34.125Z,7.44
2022-12-04T11:21:20.191Z,7.48
2022-12-04T11:23:52.786Z,7.51
2022-12-04T11:26:33.971Z,7.51
2022-12-04T11:29:05.669Z,7.46
2022-12-04T11:31:34.486Z,7.51
2022-12-04T11:34:07.589Z,7.55
2022-12-04T11:36:41.317Z,7.60
2022-12-04T11:39:12.808Z,7.64
2022-12-04T11:41:41.854Z,7.67
2022-12-04T11:44:26.753Z,7.70
2022-12-04T11:46:58.557Z,7.67
2022-12-04T11:49:27.841Z,7.69
2022-12-04T11:52:12.108Z,7.70
2022-12-04T11:54:52.603Z,7.71
2022-12-04T11:57:42.547Z,7.70
2022-12-04T12:00:23.017Z,7.67
2022-12-04T12:03:26.624Z,7.64
2022-12-04T12:06:23.461Z,7.58
2022-12-04T12:09:03.892Z,7.59
2022-12-04T12:11:41.233Z,7.60
2022-12-04T12:14:19.288Z,7.55
2022-12-04T12:16:56.333Z,7.46
2022-12-04T12:19:36.875Z,7.43
2022-12-04T12:22:42.225Z,7.41
2022-12-04T12:25:22.107Z,7.34
2022-12-04T12:28:16.061Z,7.29
2022-12-04T12:31:06.284Z,7.22
2022-12-04T12:33:42.673Z,7.20
2022-12-04T12:36:12.990Z,7.21
2022-12-04T12:38:50.384Z,7.22
2022-12-04T12:41:39.747Z,7.25
2022-12-04T12:44:27.321Z,7.23
2022-12-04T12:47:02.295Z,7.18
2022-12-04T12:49:47.983Z,7.16
2022-12-04T12:52:27.562Z,7.17
2022-12-04T12:55:01.830Z,7.19
2022-12-04T12:57:38.102Z,7.20
2022-12-04T13:00:15.179Z,7.25
2022-12-04T13:03:02.917Z,7.30
2022-12-04T13:05:39.907Z,7.31
2022-12-04T13:08:29.894Z,7.33
2022-12-04T13:11:18.392Z,7.34
2022-12-04T13:13:53.171Z,7.29
2022-12-04T13:16:28.590Z,7.29
2022-12-04T13:19:11.737Z,7.27
2022-12-04T13:21:46.887Z,7.25
2022-12-04T13:24:48.096Z,7.23
2022-12-04T13:27:41.335Z,7.19
2022-12-04T13:30:18.918Z,7.21
2022-12-04T13:33:22.748Z,7.25
2022-12-04T13:36:07.124Z,7.26
2022-12-04T13:38:58.045Z,7.25
2022-12-04T13:41:28.423Z,7.23
2022-12-04T13:43:59.728Z,7.25
2022-12-04T13:46:49.701Z,7.27
2022-12-04T13:49:18.248Z,7.25
2022-12-04T13:51:51.071Z,7.26
2022-12-04T13:54:34.358Z,7.27
2022-12-04T13:57:15.126Z,7.31
2022-12-04T13:59:44.631Z,7.31
2022-12-04T14:02:25.505Z,7.30
2022-12-04T14:05:01.037Z,7.27
2022-12-04T14:07:34.090Z,7.27
2022-12-04T14:10:07.544Z,7.28
2022-12-04T14:12:42.779Z,7.24
2022-12-04T14:15:25.947Z,7.23
2022-12-04T14:18:24.734Z,7.23
2022-12-04T14:21:04.640Z,7.24
2022-12-04T14:23:41.538Z,7.25
2022-12-04T14:29:49.561Z,7.27
2022-12-04T14:32:28.099Z,7.25
2022-12-04T14:34:57.681Z,7.20
2022-12-04T14:37:34.914Z,7.16
2022-12-04T14:40:07.718Z,7.13
2022-12-04T14:42:40.182Z,7.13
2022-12-04T14:45:26.690Z,7.15
2022-12-04T14:48:38.445Z,7.14
2022-12-04T14:51:30.458Z,7.05
2022-12-04T14:54:13.535Z,7.01
2022-12-04T14:56:59.819Z,6.99
2022-12-04T14:59:41.691Z,6.97
2022-12-04T15:02:22.127Z,6.92
2022-12-04T15:04:51.129Z,6.91
2022-12-04T15:07:22.716Z,6.91
2022-12-04T15:10:15.667Z,6.88
2022-12-04T15:12:51.159Z,6.88
2022-12-04T15:15:28.778Z,6.90
2022-12-04T15:17:58.984Z,6.88
2022-12-04T15:20:32.201Z,6.88
2022-12-04T15:23:03.782Z,6.88
2022-12-04T15:25:46.493Z,6.92
2022-12-04T15:28:20.942Z,6.95
2022-12-04T15:30:50.975Z,6.95
2022-12-04T15:33:23.288Z,6.95
2022-12-04T15:36:01.797Z,6.96
2022-12-04T15:38:30.240Z,6.94
2022-12-04T15:41:00.031Z,6.94
2022-12-04T15:43:30.792Z,6.96
2022-12-04T15:46:00.267Z,7.02
2022-12-04T15:48:31.088Z,7.04
2022-12-04T15:51:03.524Z,7.06
2022-12-04T15:53:37.243Z,7.09
2022-12-04T15:56:16.521Z,7.13
2022-12-04T15:58:56.334Z,7.08
2022-12-04T16:01:24.913Z,7.07
2022-12-04T16:03:56.102Z,7.09
2022-12-04T16:06:27.844Z,7.12
2022-12-04T16:08:59.182Z,7.11
2022-12-04T16:11:37.696Z,7.12
2022-12-04T16:14:08.894Z,7.14
2022-12-04T16:16:46.372Z,7.10
2022-12-04T16:19:19.207Z,7.06
2022-12-04T16:21:47.727Z,7.08
2022-12-04T16:24:16.536Z,7.07
2022-12-04T16:26:45.091Z,7.03
2022-12-04T16:29:13.336Z,7.04
2022-12-04T16:31:41.709Z,7.06
2022-12-04T16:34:12.988Z,7.07
2022-12-04T16:36:41.657Z,7.04
2022-12-04T16:39:09.988Z,7.04
2022-12-04T16:41:38.436Z,7.08
2022-12-04T16:44:14.721Z,7.08
2022-12-04T16:46:44.145Z,7.09
2022-12-04T16:49:13.319Z,7.11
2022-12-04T16:51:46.948Z,7.13
2022-12-04T16:54:15.667Z,7.16
2022-12-04T16:56:43.958Z,7.16
2022-12-04T16:59:12.693Z,7.12
2022-12-04T17:01:46.237Z,7.07
2022-12-04T17:04:16.227Z,7.07
2022-12-04T17:06:45.410Z,7.06
2022-12-04T17:09:14.340Z,7.03
2022-12-04T17:11:43.556Z,6.94
2022-12-04T17:14:11.756Z,6.86
2022-12-04T17:16:44.030Z,6.78
2022-12-04T17:19:13.249Z,6.77
2022-12-04T17:21:41.772Z,6.79
2022-12-04T17:24:10.128Z,6.81
2022-12-04T17:26:38.759Z,6.84
2022-12-04T17:29:06.975Z,6.89
2022-12-04T17:31:35.354Z,6.89
2022-12-04T17:34:03.778Z,6.93
2022-12-04T17:36:32.014Z,6.93
2022-12-04T17:39:04.315Z,6.93
2022-12-04T17:41:32.531Z,6.92
2022-12-04T17:44:01.699Z,6.91
2022-12-04T17:46:30.241Z,6.98
2022-12-04T17:49:01.582Z,7.00
2022-12-04T17:51:35.111Z,7.01
2022-12-04T17:54:04.927Z,7.06
2022-12-04T17:56:34.220Z,7.09
2022-12-04T17:59:03.102Z,7.11
2022-12-04T18:01:31.821Z,7.11
2022-12-04T18:04:03.435Z,7.12
2022-12-04T18:06:40.708Z,7.11
2022-12-04T18:09:10.999Z,7.13
2022-12-04T18:11:41.673Z,7.09
2022-12-04T18:14:17.902Z,7.07
2022-12-04T18:16:53.463Z,7.09
2022-12-04T18:19:25.049Z,7.11
2022-12-04T18:21:54.373Z,7.13
2022-12-04T18:24:24.466Z,7.12
2022-12-04T18:26:53.002Z,7.07
2022-12-04T18:29:25.056Z,7.03
2022-12-04T18:31:53.759Z,6.98
2022-12-04T18:34:23.416Z,6.93
2022-12-04T18:36:51.821Z,6.85
2022-12-04T18:39:22.578Z,6.79
2022-12-04T18:41:51.352Z,6.78
2022-12-04T18:44:20.322Z,6.78
2022-12-04T18:46:49.333Z,6.80
2022-12-04T18:49:17.729Z,6.80
2022-12-04T18:51:50.097Z,6.79
2022-12-04T18:54:22.012Z,6.75
2022-12-04T18:56:50.732Z,6.72
2022-12-04T18:59:27.066Z,6.68
2022-12-04T19:01:55.730Z,6.69
2022-12-04T19:04:25.806Z,6.66
2022-12-04T19:06:56.176Z,6.67
2022-12-04T19:09:54.402Z,6.68
2022-12-04T19:12:16.739Z,6.73
2022-12-04T19:14:45.377Z,6.76
2022-12-04T19:17:13.680Z,6.75
2022-12-04T19:19:42.146Z,6.77
2022-12-04T19:22:10.402Z,6.75
2022-12-04T19:24:38.660Z,6.68
2022-12-04T19:27:12.937Z,6.61
2022-12-04T19:29:43.481Z,6.58
2022-12-04T19:32:12.238Z,6.57
2022-12-04T19:34:40.929Z,6.54
2022-12-04T19:37:09.420Z,6.51
2022-12-04T19:39:37.885Z,6.49
2022-12-04T19:42:06.114Z,6.49
2022-12-04T19:44:50.693Z,6.52
2022-12-04T19:47:19.062Z,6.54
2022-12-04T19:49:47.329Z,6.57
2022-12-04T19:52:16.088Z,6.59
2022-12-04T19:54:44.381Z,6.63
2022-12-04T19:57:14.745Z,6.64
2022-12-04T19:59:46.285Z,6.61
2022-12-04T20:02:15.661Z,6.62
2022-12-04T20:04:44.522Z,6.64
2022-12-04T20:07:12.922Z,6.63
2022-12-04T20:09:42.510Z,6.62
2022-12-04T20:12:12.234Z,6.63
2022-12-04T20:14:40.606Z,6.64
2022-12-04T20:17:09.300Z,6.64
2022-12-04T20:19:37.554Z,6.60
2022-12-04T20:22:05.823Z,6.57
2022-12-04T20:24:34.462Z,6.58
2022-12-04T20:27:03.426Z,6.56
2022-12-04T20:29:31.673Z,6.53
2022-12-04T20:32:00.047Z,6.51
2022-12-04T20:34:29.314Z,6.48
2022-12-04T20:36:59.043Z,6.43
2022-12-04T20:39:28.330Z,6.44
2022-12-04T20:41:56.791Z,6.45
2022-12-04T20:44:25.039Z,6.40
2022-12-04T20:46:53.647Z,6.39
2022-12-04T20:49:22.634Z,6.37
2022-12-04T20:51:52.315Z,6.37
2022-12-04T20:54:23.363Z,6.41
2022-12-04T20:56:53.414Z,6.40
2022-12-04T20:59:23.872Z,6.35
2022-12-04T21:01:53.022Z,6.34
2022-12-04T21:04:21.994Z,6.33
2022-12-04T21:06:50.444Z,6.29
2022-12-04T21:09:22.245Z,6.25
2022-12-04T21:11:53.288Z,6.22
2022-12-04T21:14:43.445Z,6.22
2022-12-04T21:17:18.783Z,6.21
2022-12-04T21:19:50.980Z,6.24
2022-12-04T21:22:19.844Z,6.29
2022-12-04T21:24:48.305Z,6.29
2022-12-04T21:27:20.973Z,6.30
2022-12-04T21:29:50.003Z,6.31
2022-12-04T21:32:20.112Z,6.29
2022-12-04T21:34:49.147Z,6.30
2022-12-04T21:37:17.693Z,6.32
2022-12-04T21:39:46.063Z,6.38
2022-12-04T21:42:33.102Z,6.34
2022-12-04T21:45:04.598Z,6.29
2022-12-04T21:47:33.193Z,6.28
2022-12-04T21:50:01.561Z,6.30
2022-12-04T21:52:31.088Z,6.34
2022-12-04T21:54:59.233Z,6.32
2022-12-04T21:57:29.012Z,6.30
2022-12-04T21:59:57.792Z,6.34
2022-12-04T22:02:26.625Z,6.41
2022-12-04T22:04:54.867Z,6.43
2022-12-04T22:07:23.356Z,6.47
2022-12-04T22:09:52.255Z,6.50
2022-12-04T22:12:47.844Z,6.55
2022-12-04T22:15:09.415Z,6.62
2022-12-04T22:17:37.846Z,6.70
2022-12-04T22:20:07.232Z,6.76
2022-12-04T22:22:36.074Z,6.78
2022-12-04T22:25:04.624Z,6.79
2022-12-04T22:27:32.842Z,6.70
2022-12-04T22:30:01.289Z,6.66
2022-12-04T22:32:29.650Z,6.63
2022-12-04T22:34:57.987Z,6.59
2022-12-04T22:37:26.529Z,6.57
2022-12-04T22:39:55.103Z,6.56
2022-12-04T22:42:23.539Z,6.56
2022-12-04T22:44:53.229Z,6.57
2022-12-04T22:47:21.466Z,6.59
2022-12-04T22:49:49.680Z,6.60
2022-12-04T22:52:19.285Z,6.57
2022-12-04T22:54:50.961Z,6.53
2022-12-04T22:57:19.303Z,6.50
2022-12-04T22:59:47.572Z,6.51
2022-12-04T23:02:16.031Z,6.53
2022-12-04T23:04:45.021Z,6.51
2022-12-04T23:07:13.364Z,6.53
2022-12-04T23:09:41.870Z,6.53
2022-12-04T23:12:10.319Z,6.53
2022-12-04T23:14:38.797Z,6.50
2022-12-04T23:17:07.309Z,6.44
2022-12-04T23:19:35.754Z,6.40
2022-12-04T23:22:04.237Z,6.35
2022-12-04T23:24:33.368Z,6.30
2022-12-04T23:27:01.627Z,6.26
2022-12-04T23:29:52.218Z,6.27
2022-12-04T23:32:18.838Z,6.25
2022-12-04T23:34:47.179Z,6.25
2022-12-04T23:37:15.452Z,6.26
2022-12-04T23:39:43.707Z,6.26
2022-12-04T23:42:12.080Z,6.25
2022-12-04T23:44:40.270Z,6.27
2022-12-04T23:47:08.955Z,6.26
2022-12-04T23:49:37.207Z,6.17
2022-12-04T23:52:05.396Z,6.09
2022-12-04T23:54:36.103Z,6.05
2022-12-04T23:57:04.429Z,6.04
2022-12-04T23:59:32.894Z,6.03
